createdAt,value
2023-05-08T00:00:40.567Z,101039.88
2023-05-08T00:03:07.113Z,101033.38
2023-05-08T00:05:33.590Z,101033.28
2023-05-08T00:08:00.020Z,101040.34
2023-05-08T00:10:28.667Z,101031.19
2023-05-08T00:12:55.758Z,101029.34
2023-05-08T00:15:22.658Z,101018.59
2023-05-08T00:17:49.168Z,101020.28
2023-05-08T00:20:15.790Z,101016.53
2023-05-08T00:22:42.304Z,101014.97
2023-05-08T00:25:08.933Z,101018.13
2023-05-08T00:27:36.740Z,101022.16
2023-05-08T00:30:03.552Z,101017.38
2023-05-08T00:32:30.192Z,101009.19
2023-05-08T00:34:56.683Z,101013.59
2023-05-08T00:37:23.129Z,101010.03
2023-05-08T00:39:49.622Z,101008.09
2023-05-08T00:42:16.182Z,101018.59
2023-05-08T00:44:43.992Z,101020.47
2023-05-08T00:47:10.530Z,101022.41
2023-05-08T00:49:37.417Z,101012.13
2023-05-08T00:52:05.442Z,101012.50
2023-05-08T00:54:31.994Z,100997.97
2023-05-08T00:56:58.535Z,100992.59
2023-05-08T00:59:26.084Z,100982.56
2023-05-08T01:01:54.017Z,100982.56
2023-05-08T01:04:25.144Z,100979.63
2023-05-08T01:06:51.819Z,100969.72
2023-05-08T01:09:18.361Z,100969.63
2023-05-08T01:11:49.724Z,100965.13
2023-05-08T01:14:20.100Z,100958.53
2023-05-08T01:16:58.550Z,100973.19
2023-05-08T01:19:48.933Z,100969.50
2023-05-08T01:22:31.246Z,100971.09
2023-05-08T01:25:20.153Z,100980.84
2023-05-08T01:28:10.628Z,100979.03
2023-05-08T01:30:59.693Z,100983.44
2023-05-08T01:33:34.830Z,100977.44
2023-05-08T01:36:11.646Z,100983.94
2023-05-08T01:38:53.772Z,100982.59
2023-05-08T01:41:26.306Z,100986.72
2023-05-08T01:44:02.707Z,100975.03
2023-05-08T01:46:32.839Z,100979.25
2023-05-08T01:49:06.672Z,100979.16
2023-05-08T01:51:36.359Z,100979.16
2023-05-08T01:54:08.620Z,100980.00
2023-05-08T01:56:38.958Z,100977.31
2023-05-08T01:59:07.384Z,100986.41
2023-05-08T02:01:34.739Z,100988.81
2023-05-08T02:04:05.508Z,100978.44
2023-05-08T02:06:32.183Z,100974.53
2023-05-08T02:09:00.625Z,100971.72
2023-05-08T02:11:30.662Z,100970.75
2023-05-08T02:13:59.304Z,100972.44
2023-05-08T02:16:27.151Z,100976.84
2023-05-08T02:18:55.615Z,100972.09
2023-05-08T02:21:23.750Z,100974.41
2023-05-08T02:23:51.838Z,100965.75
2023-05-08T02:26:19.186Z,100966.34
2023-05-08T02:28:46.717Z,100958.78
2023-05-08T02:31:14.137Z,100965.59
2023-05-08T02:33:43.347Z,100976.25
2023-05-08T02:36:12.910Z,100975.25
2023-05-08T02:38:45.463Z,100973.44
2023-05-08T02:41:13.459Z,100978.66
2023-05-08T02:43:40.282Z,100982.22
2023-05-08T02:46:14.740Z,100982.34
2023-05-08T02:48:48.718Z,100982.84
2023-05-08T02:51:20.754Z,100973.56
2023-05-08T02:53:54.613Z,100981.38
2023-05-08T02:56:26.632Z,100981.97
2023-05-08T02:58:59.826Z,100983.72
2023-05-08T03:01:37.816Z,100988.94
2023-05-08T03:04:08.616Z,100981.72
2023-05-08T03:06:38.966Z,100975.38
2023-05-08T03:09:10.942Z,100977.22
2023-05-08T03:11:42.438Z,100978.69
2023-05-08T03:14:12.430Z,100977.22
2023-05-08T03:16:42.840Z,100976.84
2023-05-08T03:19:20.801Z,100972.34
2023-05-08T03:21:51.317Z,100968.69
2023-05-08T03:24:22.547Z,100973.91
2023-05-08T03:26:49.786Z,100970.28
2023-05-08T03:29:18.577Z,100965.75
2023-05-08T03:31:45.426Z,100967.34
2023-05-08T03:34:13.434Z,100973.72
2023-05-08T03:36:40.177Z,100976.75
2023-05-08T03:39:06.819Z,100971.84
2023-05-08T03:41:34.634Z,100976.13
2023-05-08T03:44:02.961Z,100976.00
2023-05-08T03:46:31.409Z,100970.38
2023-05-08T03:48:58.435Z,100967.69
2023-05-08T03:51:24.936Z,100963.16
2023-05-08T03:53:51.529Z,100963.56
2023-05-08T03:56:18.026Z,100961.13
2023-05-08T03:58:50.434Z,100957.44
2023-05-08T04:01:23.270Z,100957.69
2023-05-08T04:03:56.287Z,100934.25
2023-05-08T04:06:30.750Z,100924.25
2023-05-08T04:09:05.525Z,100920.41
2023-05-08T04:11:41.087Z,100913.25
2023-05-08T04:14:12.814Z,100918.34
2023-05-08T04:16:43.327Z,100916.28
2023-05-08T04:19:15.072Z,100914.59
2023-05-08T04:21:43.157Z,100924.13
2023-05-08T04:24:14.720Z,100924.59
2023-05-08T04:26:42.349Z,100921.66
2023-05-08T04:29:11.071Z,100917.88
2023-05-08T04:31:39.686Z,100924.09
2023-05-08T04:34:07.804Z,100915.03
2023-05-08T04:36:34.414Z,100917.72
2023-05-08T04:39:00.956Z,100919.59
2023-05-08T04:41:27.447Z,100914.84
2023-05-08T04:43:54.387Z,100921.53
2023-05-08T04:46:22.189Z,100913.13
2023-05-08T04:48:48.645Z,100924.59
2023-05-08T04:51:15.151Z,100931.56
2023-05-08T04:53:41.591Z,100917.97
2023-05-08T04:56:08.136Z,100926.91
2023-05-08T04:58:34.603Z,100917.03
2023-05-08T05:01:02.374Z,100917.03
2023-05-08T05:03:30.100Z,100924.84
2023-05-08T05:05:58.165Z,100929.84
2023-05-08T05:08:24.858Z,100929.38
2023-05-08T05:10:51.476Z,100931.56
2023-05-08T05:13:18.029Z,100943.63
2023-05-08T05:15:44.571Z,100939.00
2023-05-08T05:18:11.174Z,100944.25
2023-05-08T05:20:38.948Z,100944.13
2023-05-08T05:23:05.428Z,100944.84
2023-05-08T05:25:31.868Z,100948.53
2023-05-08T05:27:58.394Z,100953.78
2023-05-08T05:30:24.887Z,100956.22
2023-05-08T05:32:51.493Z,100955.84
2023-05-08T05:35:17.997Z,100958.31
2023-05-08T05:37:45.772Z,100956.13
2023-05-08T05:40:12.539Z,100958.56
2023-05-08T05:42:39.091Z,100962.94
2023-05-08T05:45:06.376Z,100963.66
2023-05-08T05:47:32.807Z,100967.09
2023-05-08T05:49:59.257Z,100965.50
2023-05-08T05:52:25.709Z,100971.13
2023-05-08T05:54:53.432Z,100976.41
2023-05-08T05:57:19.910Z,100981.38
2023-05-08T05:59:46.490Z,100984.69
2023-05-08T06:02:12.950Z,100989.91
2023-05-08T06:04:39.573Z,100996.88
2023-05-08T06:07:05.985Z,100991.28
2023-05-08T06:09:32.425Z,100993.94
2023-05-08T06:12:00.192Z,100997.25
2023-05-08T06:14:26.818Z,100999.81
2023-05-08T06:16:53.344Z,101001.28
2023-05-08T06:19:19.766Z,101005.31
2023-05-08T06:21:46.194Z,101010.56
2023-05-08T06:24:12.634Z,101006.78
2023-05-08T06:26:39.052Z,101003.00
2023-05-08T06:29:06.801Z,101007.38
2023-05-08T06:31:33.562Z,101004.59
2023-05-08T06:34:00.146Z,101011.41
2023-05-08T06:36:26.655Z,101011.31
2023-05-08T06:38:53.103Z,101010.81
2023-05-08T06:41:19.557Z,101012.16
2023-05-08T06:43:46.180Z,101015.69
2023-05-08T06:46:13.950Z,101020.97
2023-05-08T06:48:40.547Z,101014.47
2023-05-08T06:51:07.034Z,101019.72
2023-05-08T06:53:33.481Z,101008.13
2023-05-08T06:56:00.051Z,101010.09
2023-05-08T06:58:26.476Z,101009.09
2023-05-08T07:00:52.902Z,101017.66
2023-05-08T07:03:20.810Z,101016.44
2023-05-08T07:05:47.259Z,101020.81
2023-05-08T07:08:13.670Z,101025.09
2023-05-08T07:10:40.153Z,101015.22
2023-05-08T07:13:06.724Z,101016.91
2023-05-08T07:15:33.392Z,101020.59
2023-05-08T07:17:59.936Z,101020.09
2023-05-08T07:20:28.164Z,101017.91
2023-05-08T07:22:54.700Z,101014.69
2023-05-08T07:25:21.155Z,101021.69
2023-05-08T07:27:47.768Z,101013.50
2023-05-08T07:30:14.568Z,101008.84
2023-05-08T07:32:41.256Z,101018.63
2023-05-08T07:35:10.493Z,101020.34
2023-05-08T07:37:39.065Z,101020.59
2023-05-08T07:40:06.427Z,101018.88
2023-05-08T07:42:38.950Z,101023.75
2023-05-08T07:45:06.118Z,101027.06
2023-05-08T07:47:32.690Z,101024.25
2023-05-08T07:49:59.130Z,101024.97
2023-05-08T07:52:25.629Z,101023.03
2023-05-08T07:54:53.345Z,101024.72
2023-05-08T07:57:19.797Z,101021.81
2023-05-08T07:59:46.351Z,101018.88
2023-05-08T08:02:12.835Z,101021.06
2023-05-08T08:04:39.380Z,101017.16
2023-05-08T08:07:05.996Z,101026.81
2023-05-08T08:09:32.447Z,101022.28
2023-05-08T08:12:00.223Z,101022.19
2023-05-08T08:14:26.725Z,101018.50
2023-05-08T08:16:53.244Z,101021.81
2023-05-08T08:19:19.797Z,101018.88
2023-05-08T08:21:46.270Z,101023.75
2023-05-08T08:24:12.731Z,101017.28
2023-05-08T08:26:39.173Z,101019.59
2023-05-08T08:29:06.985Z,101013.25
2023-05-08T08:31:33.557Z,101021.19
2023-05-08T08:34:00.150Z,101013.88
2023-05-08T08:36:26.607Z,101016.31
2023-05-08T08:38:53.456Z,101022.16
2023-05-08T08:41:19.930Z,101024.50
2023-05-08T08:43:46.426Z,101025.09
2023-05-08T08:46:14.493Z,101018.63
2023-05-08T08:48:45.023Z,101007.63
2023-05-08T08:51:18.344Z,100990.53
2023-05-08T08:53:49.448Z,100989.53
2023-05-08T08:56:16.493Z,100992.13
2023-05-08T08:58:49.777Z,100994.34
2023-05-08T09:01:19.097Z,100982.22
2023-05-08T09:03:47.550Z,100984.66
2023-05-08T09:06:15.872Z,100989.78
2023-05-08T09:08:42.901Z,100986.13
2023-05-08T09:11:09.504Z,100998.34
2023-05-08T09:13:36.070Z,100987.59
2023-05-08T09:16:03.005Z,100988.47
2023-05-08T09:18:30.789Z,100984.91
2023-05-08T09:20:57.316Z,100992.50
2023-05-08T09:23:24.466Z,100985.66
2023-05-08T09:25:50.881Z,100987.09
2023-05-08T09:28:18.207Z,100985.03
2023-05-08T09:30:53.383Z,100982.22
2023-05-08T09:33:21.142Z,100989.31
2023-05-08T09:35:49.107Z,100980.25
2023-05-08T09:38:33.533Z,100983.72
2023-05-08T09:41:06.924Z,100981.50
2023-05-08T09:43:33.542Z,100981.03
2023-05-08T09:46:20.154Z,100969.03
2023-05-08T09:48:46.613Z,100960.72
2023-05-08T09:51:14.477Z,100949.00
2023-05-08T09:53:41.103Z,100948.75
2023-05-08T09:56:07.783Z,100938.00
2023-05-08T09:58:38.139Z,100932.38
2023-05-08T10:01:04.684Z,100928.47
2023-05-08T10:03:46.524Z,100925.31
2023-05-08T10:06:15.036Z,100927.59
2023-05-08T10:08:41.546Z,100913.91
2023-05-08T10:11:16.628Z,100913.81
2023-05-08T10:13:43.774Z,100927.09
2023-05-08T10:16:15.160Z,100918.94
2023-05-08T10:18:47.273Z,100922.22
2023-05-08T10:21:16.350Z,100925.78
2023-05-08T10:23:43.966Z,100915.53
2023-05-08T10:26:13.169Z,100924.06
2023-05-08T10:28:44.165Z,100921.97
2023-05-08T10:31:13.056Z,100920.13
2023-05-08T10:33:41.118Z,100914.41
2023-05-08T10:36:08.719Z,100916.94
2023-05-08T10:38:37.770Z,100924.31
2023-05-08T10:41:05.115Z,100923.59
2023-05-08T10:43:33.396Z,100933.13
2023-05-08T10:46:05.122Z,100928.19
2023-05-08T10:48:50.486Z,100923.56
2023-05-08T10:51:24.742Z,100902.81
2023-05-08T10:53:57.371Z,100910.72
2023-05-08T10:56:26.217Z,100911.47
2023-05-08T10:58:56.214Z,100917.50
2023-05-08T11:01:22.750Z,100922.38
2023-05-08T11:03:49.843Z,100929.19
2023-05-08T11:06:17.007Z,100928.94
2023-05-08T11:08:46.502Z,100927.00
2023-05-08T11:11:23.690Z,100929.53
2023-05-08T11:13:54.508Z,100925.88
2023-05-08T11:16:45.931Z,100921.75
2023-05-08T11:19:16.892Z,100924.31
2023-05-08T11:22:08.129Z,100926.50
2023-05-08T11:24:35.521Z,100919.19
2023-05-08T11:27:03.655Z,100926.00
2023-05-08T11:29:30.171Z,100929.41
2023-05-08T11:31:57.143Z,100933.81
2023-05-08T11:34:43.753Z,100929.56
2023-05-08T11:37:10.813Z,100948.88
2023-05-08T11:39:37.412Z,100953.63
2023-05-08T11:42:28.647Z,100946.91
2023-05-08T11:45:05.230Z,100935.06
2023-05-08T11:47:38.261Z,100921.47
2023-05-08T11:50:05.519Z,100920.50
2023-05-08T11:52:33.109Z,100921.34
2023-05-08T11:55:03.831Z,100918.94
2023-05-08T11:57:31.182Z,100903.81
2023-05-08T11:59:57.628Z,100904.28
2023-05-08T12:02:36.554Z,100906.44
2023-05-08T12:05:03.139Z,100909.88
2023-05-08T12:07:29.697Z,100920.38
2023-05-08T12:09:56.266Z,100911.31
2023-05-08T12:12:22.928Z,100914.25
2023-05-08T12:14:49.831Z,100914.56
2023-05-08T12:17:17.119Z,100919.94
2023-05-08T12:19:45.139Z,100921.13
2023-05-08T12:22:12.090Z,100921.72
2023-05-08T12:24:39.041Z,100927.69
2023-05-08T12:27:05.535Z,100922.31
2023-05-08T12:29:35.870Z,100910.47
2023-05-08T12:32:02.622Z,100911.47
2023-05-08T12:34:29.297Z,100919.69
2023-05-08T12:37:04.827Z,100920.91
2023-05-08T12:39:35.245Z,100917.59
2023-05-08T12:42:01.684Z,100921.72
2023-05-08T12:44:30.127Z,100922.31
2023-05-08T12:46:57.758Z,100916.84
2023-05-08T12:49:26.418Z,100911.31
2023-05-08T12:52:00.707Z,100908.88
2023-05-08T12:54:33.647Z,100911.88
2023-05-08T12:57:00.145Z,100906.38
2023-05-08T12:59:31.543Z,100902.31
2023-05-08T13:01:58.146Z,100902.81
2023-05-08T13:04:24.869Z,100894.47
2023-05-08T13:06:54.463Z,100895.19
2023-05-08T13:09:20.950Z,100900.44
2023-05-08T13:11:49.171Z,100893.88
2023-05-08T13:14:15.765Z,100892.06
2023-05-08T13:16:43.305Z,100883.75
2023-05-08T13:19:09.868Z,100878.03
2023-05-08T13:21:36.641Z,100881.16
2023-05-08T13:24:03.403Z,100863.09
2023-05-08T13:26:29.882Z,100848.50
2023-05-08T13:28:57.673Z,100866.47
2023-05-08T13:31:24.444Z,100868.22
2023-05-08T13:33:50.965Z,100862.78
2023-05-08T13:36:17.457Z,100856.03
2023-05-08T13:38:43.916Z,100844.78
2023-05-08T13:41:10.403Z,100843.69
2023-05-08T13:43:36.951Z,100846.09
2023-05-08T13:46:06.813Z,100846.69
2023-05-08T13:48:33.635Z,100854.63
2023-05-08T13:51:00.111Z,100844.38
2023-05-08T13:53:26.597Z,100855.19
2023-05-08T13:55:53.209Z,100840.75
2023-05-08T13:58:19.637Z,100841.25
2023-05-08T14:00:46.085Z,100834.63
2023-05-08T14:03:14.061Z,100845.97
2023-05-08T14:05:40.621Z,100839.50
2023-05-08T14:08:07.078Z,100832.53
2023-05-08T14:10:33.549Z,100837.13
2023-05-08T14:13:00.019Z,100834.94
2023-05-08T14:15:31.860Z,100844.19
2023-05-08T14:18:03.373Z,100852.69
2023-05-08T14:20:31.192Z,100853.28
2023-05-08T14:23:00.100Z,100851.34
2023-05-08T14:25:26.990Z,100846.56
2023-05-08T14:27:53.571Z,100841.19
2023-05-08T14:30:20.012Z,100840.84
2023-05-08T14:32:46.505Z,100831.00
2023-05-08T14:35:13.308Z,100842.50
2023-05-08T14:37:41.246Z,100844.63
2023-05-08T14:40:08.699Z,100831.78
2023-05-08T14:42:35.236Z,100836.81
2023-05-08T14:45:01.822Z,100840.09
2023-05-08T14:47:28.395Z,100830.94
2023-05-08T14:49:54.853Z,100827.56
2023-05-08T14:52:21.289Z,100834.44
2023-05-08T14:54:49.280Z,100833.03
2023-05-08T14:57:15.818Z,100823.63
2023-05-08T14:59:49.360Z,100830.44
2023-05-08T15:02:21.070Z,100838.50
2023-05-08T15:04:47.500Z,100829.00
2023-05-08T15:07:14.073Z,100818.56
2023-05-08T15:09:40.564Z,100824.53
2023-05-08T15:12:08.412Z,100809.00
2023-05-08T15:14:34.889Z,100816.50
2023-05-08T15:17:01.320Z,100813.56
2023-05-08T15:19:27.784Z,100814.31
2023-05-08T15:21:54.275Z,100808.78
2023-05-08T15:24:20.778Z,100808.16
2023-05-08T15:26:47.255Z,100797.91
2023-05-08T15:29:14.989Z,100800.94
2023-05-08T15:31:41.598Z,100796.16
2023-05-08T15:34:08.125Z,100791.38
2023-05-08T15:36:34.590Z,100782.91
2023-05-08T15:39:01.131Z,100778.38
2023-05-08T15:41:27.628Z,100778.88
2023-05-08T15:43:54.038Z,100773.72
2023-05-08T15:46:21.907Z,100780.69
2023-05-08T15:48:48.447Z,100769.38
2023-05-08T15:51:14.900Z,100775.34
2023-05-08T15:53:41.437Z,100771.56
2023-05-08T15:56:07.938Z,100773.00
2023-05-08T15:58:34.550Z,100774.72
2023-05-08T16:01:00.998Z,100772.91
2023-05-08T16:03:28.986Z,100768.47
2023-05-08T16:05:55.648Z,100780.53
2023-05-08T16:08:22.221Z,100766.69
2023-05-08T16:10:49.013Z,100770.81
2023-05-08T16:13:15.730Z,100775.94
2023-05-08T16:15:42.391Z,100774.72
2023-05-08T16:18:08.962Z,100762.97
2023-05-08T16:20:39.367Z,100760.47
2023-05-08T16:23:05.880Z,100766.66
2023-05-08T16:25:32.530Z,100750.13
2023-05-08T16:27:59.014Z,100752.31
2023-05-08T16:30:25.505Z,100745.78
2023-05-08T16:32:52.042Z,100751.75
2023-05-08T16:35:18.685Z,100760.56
2023-05-08T16:37:46.639Z,100767.63
2023-05-08T16:40:13.324Z,100765.16
2023-05-08T16:42:39.876Z,100761.28
2023-05-08T16:45:07.401Z,100757.94
2023-05-08T16:47:34.050Z,100747.78
2023-05-08T16:50:00.580Z,100746.63
2023-05-08T16:52:27.172Z,100744.53
2023-05-08T16:54:54.925Z,100746.97
2023-05-08T16:57:21.422Z,100739.56
2023-05-08T16:59:47.898Z,100730.84
2023-05-08T17:02:14.374Z,100736.69
2023-05-08T17:04:40.820Z,100738.88
2023-05-08T17:07:07.406Z,100734.19
2023-05-08T17:09:34.918Z,100731.25
2023-05-08T17:12:02.878Z,100730.00
2023-05-08T17:14:29.476Z,100731.72
2023-05-08T17:16:56.038Z,100724.69
2023-05-08T17:19:22.516Z,100731.81
2023-05-08T17:21:48.975Z,100723.97
2023-05-08T17:24:15.511Z,100731.66
2023-05-08T17:26:42.067Z,100717.06
2023-05-08T17:29:09.848Z,100724.03
2023-05-08T17:31:36.436Z,100722.91
2023-05-08T17:34:03.044Z,100736.22
2023-05-08T17:36:29.508Z,100739.13
2023-05-08T17:38:56.075Z,100726.19
2023-05-08T17:41:22.629Z,100731.06
2023-05-08T17:43:49.084Z,100719.06
2023-05-08T17:46:17.003Z,100722.34
2023-05-08T17:48:43.511Z,100726.59
2023-05-08T17:51:12.098Z,100727.44
2023-05-08T17:53:38.579Z,100717.72
2023-05-08T17:56:05.882Z,100731.56
2023-05-08T17:58:32.428Z,100720.31
2023-05-08T18:00:58.918Z,100728.97
2023-05-08T18:03:26.702Z,100714.38
2023-05-08T18:05:53.144Z,100721.22
2023-05-08T18:08:19.658Z,100721.09
2023-05-08T18:10:46.215Z,100713.88
2023-05-08T18:13:12.689Z,100705.88
2023-05-08T18:15:39.978Z,100696.78
2023-05-08T18:18:06.630Z,100687.31
2023-05-08T18:20:34.474Z,100685.13
2023-05-08T18:23:00.933Z,100677.63
2023-05-08T18:25:27.359Z,100672.97
2023-05-08T18:27:53.791Z,100686.97
2023-05-08T18:30:20.369Z,100697.75
2023-05-08T18:32:46.857Z,100689.03
2023-05-08T18:35:13.344Z,100695.91
2023-05-08T18:37:41.091Z,100697.09
2023-05-08T18:40:08.416Z,100694.03
2023-05-08T18:42:35.061Z,100697.28
2023-05-08T18:45:02.701Z,100692.63
2023-05-08T18:47:29.182Z,100683.59
2023-05-08T18:49:55.703Z,100684.28
2023-05-08T18:52:22.181Z,100685.63
2023-05-08T18:54:49.954Z,100681.78
2023-05-08T18:57:16.400Z,100680.13
2023-05-08T18:59:42.888Z,100673.38
2023-05-08T19:02:09.443Z,100668.84
2023-05-08T19:04:35.907Z,100667.47
2023-05-08T19:07:02.372Z,100669.16
2023-05-08T19:09:28.836Z,100675.06
2023-05-08T19:11:56.603Z,100675.41
2023-05-08T19:14:23.143Z,100672.47
2023-05-08T19:16:49.582Z,100682.69
2023-05-08T19:19:16.078Z,100677.06
2023-05-08T19:21:42.737Z,100676.75
2023-05-08T19:24:09.172Z,100669.44
2023-05-08T19:26:35.699Z,100679.06
2023-05-08T19:29:03.429Z,100676.06
2023-05-08T19:31:29.919Z,100678.09
2023-05-08T19:33:56.440Z,100670.50
2023-05-08T19:36:22.990Z,100667.41
2023-05-08T19:38:49.401Z,100666.16
2023-05-08T19:41:15.798Z,100661.50
2023-05-08T19:43:42.244Z,100657.69
2023-05-08T19:46:10.217Z,100667.47
2023-05-08T19:48:36.661Z,100658.03
2023-05-08T19:51:06.570Z,100650.22
2023-05-08T19:53:33.113Z,100652.28
2023-05-08T19:55:59.710Z,100656.41
2023-05-08T19:58:26.182Z,100650.88
2023-05-08T20:00:52.682Z,100640.72
2023-05-08T20:03:20.560Z,100636.19
2023-05-08T20:05:47.230Z,100643.81
2023-05-08T20:08:13.741Z,100635.94
2023-05-08T20:10:40.168Z,100635.69
2023-05-08T20:13:06.721Z,100630.91
2023-05-08T20:15:33.159Z,100636.75
2023-05-08T20:17:59.797Z,100637.44
2023-05-08T20:20:27.635Z,100630.09
2023-05-08T20:22:54.101Z,100635.22
2023-05-08T20:25:20.720Z,100631.88
2023-05-08T20:27:47.165Z,100627.19
2023-05-08T20:30:14.150Z,100628.47
2023-05-08T20:32:40.996Z,100627.94
2023-05-08T20:35:08.322Z,100618.78
2023-05-08T20:37:42.557Z,100617.63
2023-05-08T20:40:09.674Z,100606.75
2023-05-08T20:42:36.096Z,100606.75
2023-05-08T20:45:02.677Z,100598.91
2023-05-08T20:47:29.112Z,100594.78
2023-05-08T20:49:55.649Z,100594.97
2023-05-08T20:52:22.154Z,100592.84
2023-05-08T20:54:49.893Z,100596.13
2023-05-08T20:57:16.411Z,100591.63
2023-05-08T20:59:42.859Z,100596.84
2023-05-08T21:02:09.350Z,100591.91
2023-05-08T21:04:35.861Z,100597.47
2023-05-08T21:07:02.428Z,100596.38
2023-05-08T21:09:28.926Z,100595.97
2023-05-08T21:11:56.984Z,100581.25
2023-05-08T21:14:23.451Z,100583.69
2023-05-08T21:16:49.905Z,100574.63
2023-05-08T21:19:16.502Z,100581.47
2023-05-08T21:21:43.072Z,100582.56
2023-05-08T21:24:09.555Z,100588.44
2023-05-08T21:26:36.045Z,100579.53
2023-05-08T21:29:04.249Z,100563.00
2023-05-08T21:31:30.751Z,100564.44
2023-05-08T21:33:57.269Z,100563.19
2023-05-08T21:36:23.740Z,100554.00
2023-05-08T21:38:50.198Z,100555.69
2023-05-08T21:41:16.645Z,100551.69
2023-05-08T21:43:43.116Z,100546.69
2023-05-08T21:46:10.971Z,100542.63
2023-05-08T21:48:37.457Z,100548.44
2023-05-08T21:51:04.936Z,100550.84
2023-05-08T21:53:31.558Z,100547.16
2023-05-08T21:55:58.673Z,100552.28
2023-05-08T21:58:25.276Z,100553.13
2023-05-08T22:00:51.894Z,100544.63
2023-05-08T22:03:19.836Z,100534.25
2023-05-08T22:05:46.308Z,100533.00
2023-05-08T22:08:12.862Z,100536.16
2023-05-08T22:10:39.393Z,100540.94
2023-05-08T22:13:05.900Z,100529.25
2023-05-08T22:15:32.724Z,100534.47
2023-05-08T22:17:59.913Z,100537.88
2023-05-08T22:20:27.854Z,100538.00
2023-05-08T22:22:54.351Z,100524.09
2023-05-08T22:25:20.955Z,100531.03
2023-05-08T22:27:47.530Z,100524.41
2023-05-08T22:30:14.673Z,100515.06
2023-05-08T22:32:41.204Z,100515.81
2023-05-08T22:35:08.187Z,100513.81
2023-05-08T22:37:36.076Z,100520.88
2023-05-08T22:40:02.577Z,100522.41
2023-05-08T22:42:29.154Z,100506.28
2023-05-08T22:44:56.538Z,100513.78
2023-05-08T22:47:23.112Z,100515.22
2023-05-08T22:49:49.668Z,100511.53
2023-05-08T22:52:16.082Z,100516.66
2023-05-08T22:54:43.866Z,100505.75
2023-05-08T22:57:11.058Z,100505.63
2023-05-08T22:59:37.484Z,100500.78
2023-05-08T23:02:03.914Z,100499.06
2023-05-08T23:04:30.591Z,100487.19
2023-05-08T23:06:57.045Z,100492.16
2023-05-08T23:09:23.611Z,100488.34
2023-05-08T23:11:51.386Z,100488.19
2023-05-08T23:14:17.930Z,100488.94
2023-05-08T23:16:44.425Z,100479.03
2023-05-08T23:19:10.874Z,100473.91
2023-05-08T23:21:37.331Z,100471.47
2023-05-08T23:24:04.571Z,100471.06
2023-05-08T23:26:31.039Z,100469.81
2023-05-08T23:28:59.003Z,100462.31
2023-05-08T23:31:25.445Z,100454.13
2023-05-08T23:33:51.942Z,100449.47
2023-05-08T23:36:18.535Z,100450.31
2023-05-08T23:38:44.993Z,100453.41
2023-05-08T23:41:11.958Z,100440.06
2023-05-08T23:43:38.382Z,100440.66
2023-05-08T23:46:06.200Z,100441.09
2023-05-08T23:48:32.780Z,100441.69
2023-05-08T23:50:59.313Z,100442.53
2023-05-08T23:53:25.860Z,100435.03
2023-05-08T23:55:52.279Z,100443.94
2023-05-08T23:58:18.904Z,100435.72
